createdAt,value
2018-07-03T00:02:26.871Z,50.06
2018-07-03T00:05:00.192Z,50.13
2018-07-03T00:07:33.523Z,49.80
2018-07-03T00:10:08.639Z,50.06
2018-07-03T00:12:41.937Z,49.91
2018-07-03T00:15:16.090Z,50.20
2018-07-03T00:17:49.409Z,49.74
2018-07-03T00:20:22.719Z,50.12
2018-07-03T00:22:56.028Z,50.48
2018-07-03T00:25:29.341Z,50.57
2018-07-03T00:28:02.681Z,50.07
2018-07-03T00:30:35.996Z,50.30
2018-07-03T00:33:09.290Z,50.29
2018-07-03T00:35:43.221Z,49.95
2018-07-03T00:38:16.515Z,50.30
2018-07-03T00:40:49.824Z,50.19
2018-07-03T00:43:23.116Z,50.40
2018-07-03T00:45:56.436Z,50.47
2018-07-03T00:48:29.736Z,50.40
2018-07-03T00:51:03.245Z,50.60
2018-07-03T00:53:36.548Z,50.68
2018-07-03T00:56:09.897Z,50.78
2018-07-03T00:58:43.553Z,50.86
2018-07-03T01:01:16.909Z,50.95
2018-07-03T01:03:50.219Z,50.92
2018-07-03T01:06:23.542Z,50.93
2018-07-03T01:08:56.856Z,51.04
2018-07-03T01:11:30.264Z,51.52
2018-07-03T01:14:03.648Z,51.81
2018-07-03T01:16:36.967Z,51.70
2018-07-03T01:19:10.271Z,51.71
2018-07-03T01:21:44.189Z,51.98
2018-07-03T01:24:17.515Z,52.13
2018-07-03T01:26:50.837Z,51.82
2018-07-03T01:29:24.126Z,51.60
2018-07-03T01:31:57.428Z,51.78
2018-07-03T01:34:30.718Z,51.46
2018-07-03T01:37:04.041Z,51.46
2018-07-03T01:39:37.342Z,51.66
2018-07-03T01:42:10.665Z,51.76
2018-07-03T01:44:44.948Z,51.85
2018-07-03T01:47:18.276Z,51.53
2018-07-03T01:49:51.596Z,51.95
2018-07-03T01:52:24.897Z,51.89
2018-07-03T01:54:58.199Z,51.93
2018-07-03T01:57:31.480Z,52.26
2018-07-03T02:00:05.583Z,51.85
2018-07-03T02:02:38.893Z,51.92
2018-07-03T02:05:12.482Z,52.02
2018-07-03T02:07:45.807Z,52.45
2018-07-03T02:10:19.128Z,52.97
2018-07-03T02:12:52.641Z,52.73
2018-07-03T02:15:25.957Z,53.23
2018-07-03T02:17:59.243Z,53.17
2018-07-03T02:20:32.561Z,52.89
2018-07-03T02:23:05.866Z,53.02
2018-07-03T02:25:39.168Z,53.08
2018-07-03T02:28:12.461Z,52.91
2018-07-03T02:30:45.780Z,52.76
2018-07-03T02:33:19.077Z,52.93
2018-07-03T02:35:52.522Z,52.73
2018-07-03T02:38:25.825Z,52.99
2018-07-03T02:40:59.255Z,52.89
2018-07-03T02:43:32.549Z,53.07
2018-07-03T02:46:06.092Z,52.93
2018-07-03T02:48:39.433Z,52.99
2018-07-03T02:51:13.475Z,52.95
2018-07-03T02:53:46.768Z,52.95
2018-07-03T02:56:20.133Z,53.05
2018-07-03T02:58:54.021Z,53.32
2018-07-03T03:01:27.333Z,53.54
2018-07-03T03:04:00.676Z,53.41
2018-07-03T03:06:34.008Z,53.88
2018-07-03T03:09:09.680Z,53.54
2018-07-03T03:11:43.745Z,54.14
2018-07-03T03:14:17.094Z,53.72
2018-07-03T03:16:50.434Z,53.93
2018-07-03T03:19:23.756Z,53.94
2018-07-03T03:21:57.160Z,53.64
2018-07-03T03:24:30.473Z,53.72
2018-07-03T03:27:03.859Z,53.77
2018-07-03T03:29:37.181Z,53.82
2018-07-03T03:32:10.506Z,53.92
2018-07-03T03:34:44.437Z,54.07
2018-07-03T03:37:17.770Z,53.99
2018-07-03T03:39:51.079Z,54.09
2018-07-03T03:42:24.412Z,54.39
2018-07-03T03:44:57.746Z,54.34
2018-07-03T03:47:31.087Z,54.34
2018-07-03T03:50:04.817Z,54.73
2018-07-03T03:52:38.169Z,54.76
2018-07-03T03:55:11.483Z,54.27
2018-07-03T03:57:45.565Z,54.59
2018-07-03T04:00:18.943Z,54.58
2018-07-03T04:02:52.265Z,54.38
2018-07-03T04:05:25.569Z,54.56
2018-07-03T04:07:58.949Z,54.54
2018-07-03T04:10:32.276Z,54.63
2018-07-03T04:13:05.599Z,54.41
2018-07-03T04:15:38.900Z,54.37
2018-07-03T04:18:13.117Z,53.98
2018-07-03T04:20:46.425Z,53.91
2018-07-03T04:23:19.761Z,53.66
2018-07-03T04:25:53.055Z,53.70
2018-07-03T04:28:26.461Z,52.92
2018-07-03T04:30:59.961Z,52.96
2018-07-03T04:33:33.281Z,53.17
2018-07-03T04:36:07.022Z,52.73
2018-07-03T04:38:40.334Z,52.60
2018-07-03T04:41:14.316Z,52.47
2018-07-03T04:43:47.643Z,52.04
2018-07-03T04:46:20.954Z,51.99
2018-07-03T04:48:54.434Z,51.61
2018-07-03T04:51:27.803Z,51.55
2018-07-03T04:54:01.120Z,51.35
2018-07-03T04:56:34.646Z,51.14
2018-07-03T04:59:08.029Z,51.12
2018-07-03T05:01:41.337Z,50.63
2018-07-03T05:04:15.838Z,50.84
2018-07-03T05:06:49.181Z,50.42
2018-07-03T05:09:22.495Z,50.70
2018-07-03T05:11:55.844Z,50.54
2018-07-03T05:14:29.305Z,50.53
2018-07-03T05:17:02.593Z,50.36
2018-07-03T05:19:36.004Z,50.24
2018-07-03T05:22:09.338Z,49.89
2018-07-03T05:24:45.691Z,49.39
2018-07-03T05:27:19.000Z,49.10
2018-07-03T05:29:52.350Z,48.29
2018-07-03T05:32:25.869Z,48.24
2018-07-03T05:34:59.199Z,48.30
2018-07-03T05:37:32.654Z,48.13
2018-07-03T05:40:06.089Z,47.50
2018-07-03T05:42:39.388Z,47.69
2018-07-03T05:45:12.735Z,47.38
2018-07-03T05:47:46.031Z,47.56
2018-07-03T05:50:19.351Z,47.15
2018-07-03T05:52:52.941Z,47.17
2018-07-03T05:55:26.338Z,47.33
2018-07-03T05:57:59.645Z,46.85
2018-07-03T06:00:32.963Z,46.94
2018-07-03T06:03:06.278Z,46.52
2018-07-03T06:05:39.613Z,46.77
2018-07-03T06:08:13.752Z,46.60
2018-07-03T06:10:47.099Z,46.14
2018-07-03T06:13:20.409Z,45.61
2018-07-03T06:15:53.817Z,45.54
2018-07-03T06:18:27.224Z,44.96
2018-07-03T06:21:00.546Z,44.84
2018-07-03T06:23:33.864Z,43.92
2018-07-03T06:26:08.467Z,43.27
2018-07-03T06:28:41.795Z,43.23
2018-07-03T06:31:15.685Z,42.71
2018-07-03T06:33:48.986Z,42.50
2018-07-03T06:36:22.385Z,42.07
2018-07-03T06:38:55.668Z,41.45
2018-07-03T06:41:28.972Z,40.61
2018-07-03T06:44:02.276Z,41.24
2018-07-03T06:46:35.639Z,39.34
2018-07-03T06:49:08.973Z,39.00
2018-07-03T06:51:43.553Z,38.39
2018-07-03T06:54:16.857Z,39.50
2018-07-03T06:56:50.180Z,39.75
2018-07-03T06:59:23.483Z,38.71
2018-07-03T07:01:56.836Z,38.40
2018-07-03T07:04:30.359Z,37.70
2018-07-03T07:07:03.672Z,37.07
2018-07-03T07:09:37.115Z,37.13
2018-07-03T07:12:10.400Z,36.95
2018-07-03T07:14:44.514Z,33.85
2018-07-03T07:17:17.833Z,35.14
2018-07-03T07:19:51.164Z,34.19
2018-07-03T07:22:24.522Z,33.96
2018-07-03T07:24:57.861Z,34.03
2018-07-03T07:27:31.313Z,34.02
2018-07-03T07:30:05.474Z,34.21
2018-07-03T07:32:38.909Z,32.86
2018-07-03T07:35:12.218Z,30.84
2018-07-03T07:37:45.647Z,31.80
2018-07-03T07:40:18.934Z,30.80
2018-07-03T07:42:52.434Z,31.67
2018-07-03T07:45:25.794Z,30.42
2018-07-03T07:47:59.184Z,30.34
2018-07-03T07:50:32.532Z,29.67
2018-07-03T07:53:05.944Z,29.78
2018-07-03T07:55:39.247Z,29.50
2018-07-03T07:58:12.586Z,30.12
2018-07-03T08:00:45.896Z,29.96
2018-07-03T08:03:19.227Z,28.34
2018-07-03T08:05:52.541Z,28.99
2018-07-03T08:08:25.976Z,27.85
2018-07-03T08:10:59.315Z,28.00
2018-07-03T08:13:32.689Z,27.65
2018-07-03T08:16:06.025Z,27.67
2018-07-03T08:18:40.623Z,27.84
2018-07-03T08:21:14.628Z,28.40
2018-07-03T08:23:47.965Z,27.75
2018-07-03T08:26:21.570Z,27.01
2018-07-03T08:28:55.058Z,27.11
2018-07-03T08:31:28.368Z,28.10
2018-07-03T08:34:01.708Z,27.25
2018-07-03T08:36:35.036Z,26.95
2018-07-03T08:39:10.124Z,26.77
2018-07-03T08:41:43.758Z,26.67
2018-07-03T08:44:17.076Z,27.19
2018-07-03T08:46:50.376Z,27.08
2018-07-03T08:49:23.734Z,26.75
2018-07-03T08:51:57.031Z,26.06
2018-07-03T08:54:30.360Z,26.66
2018-07-03T08:57:03.773Z,25.36
2018-07-03T08:59:37.091Z,25.94
2018-07-03T09:02:11.030Z,24.57
2018-07-03T09:04:44.865Z,25.37
2018-07-03T09:07:18.178Z,25.18
2018-07-03T09:09:51.537Z,24.60
2018-07-03T09:12:24.848Z,24.86
2018-07-03T09:14:58.626Z,24.49
2018-07-03T09:17:31.927Z,25.18
2018-07-03T09:20:05.741Z,24.91
2018-07-03T09:22:39.330Z,24.92
2018-07-03T09:25:13.766Z,24.20
2018-07-03T09:27:47.067Z,23.88
2018-07-03T09:30:20.711Z,23.69
2018-07-03T09:32:54.067Z,23.91
2018-07-03T09:35:31.357Z,23.23
2018-07-03T09:38:04.868Z,23.13
2018-07-03T09:40:38.809Z,22.47
2018-07-03T09:43:12.168Z,23.00
2018-07-03T09:45:46.527Z,22.91
2018-07-03T09:48:20.881Z,24.05
2018-07-03T09:50:54.333Z,24.22
2018-07-03T09:53:27.705Z,23.86
2018-07-03T09:56:01.306Z,22.95
2018-07-03T09:58:34.629Z,23.24
2018-07-03T10:01:14.324Z,22.96
2018-07-03T10:03:47.653Z,22.20
2018-07-03T10:06:20.974Z,21.69
2018-07-03T10:08:54.280Z,21.82
2018-07-03T10:11:27.628Z,21.45
2018-07-03T10:14:00.941Z,21.33
2018-07-03T10:16:34.254Z,22.19
2018-07-03T10:19:08.507Z,22.02
2018-07-03T10:21:41.833Z,21.82
2018-07-03T10:24:15.809Z,21.68
2018-07-03T10:26:49.145Z,20.06
2018-07-03T10:29:22.449Z,20.96
2018-07-03T10:31:55.827Z,21.46
2018-07-03T10:34:29.127Z,21.60
2018-07-03T10:37:02.469Z,21.37
2018-07-03T10:39:35.767Z,21.31
2018-07-03T10:42:09.328Z,21.74
2018-07-03T10:44:42.712Z,21.20
2018-07-03T10:47:16.054Z,21.22
2018-07-03T10:49:49.360Z,21.11
2018-07-03T10:52:22.677Z,22.70
2018-07-03T10:54:56.349Z,21.95
2018-07-03T10:57:29.802Z,21.60
2018-07-03T11:00:03.085Z,22.22
2018-07-03T11:02:36.765Z,23.58
2018-07-03T11:05:10.121Z,22.24
2018-07-03T11:07:44.573Z,22.24
2018-07-03T11:10:17.919Z,20.78
2018-07-03T11:12:51.272Z,21.12
2018-07-03T11:15:24.596Z,20.53
2018-07-03T11:17:57.897Z,21.07
2018-07-03T11:20:31.209Z,21.15
2018-07-03T11:23:04.544Z,21.96
2018-07-03T11:25:38.089Z,21.27
2018-07-03T11:28:11.400Z,19.85
2018-07-03T11:30:45.335Z,20.61
2018-07-03T11:33:18.633Z,19.67
2018-07-03T11:35:52.265Z,20.95
2018-07-03T11:38:25.565Z,20.91
2018-07-03T11:40:58.925Z,20.58
2018-07-03T11:43:32.207Z,19.60
2018-07-03T11:46:05.512Z,20.26
2018-07-03T11:48:38.963Z,19.83
2018-07-03T11:51:12.301Z,21.57
2018-07-03T11:53:46.605Z,21.04
2018-07-03T11:56:20.108Z,19.59
2018-07-03T11:58:53.536Z,21.03
2018-07-03T12:01:27.024Z,20.36
2018-07-03T12:04:00.250Z,21.51
2018-07-03T12:06:33.589Z,21.20
2018-07-03T12:09:09.834Z,21.54
2018-07-03T12:11:43.670Z,21.61
2018-07-03T12:14:16.985Z,21.59
2018-07-03T12:16:50.325Z,19.83
2018-07-03T12:19:23.643Z,20.39
2018-07-03T12:21:56.970Z,21.27
2018-07-03T12:24:30.317Z,20.38
2018-07-03T12:27:03.697Z,20.64
2018-07-03T12:29:37.021Z,20.98
2018-07-03T12:32:10.507Z,21.29
2018-07-03T12:34:44.545Z,22.05
2018-07-03T12:37:17.874Z,20.66
2018-07-03T12:39:51.163Z,20.65
2018-07-03T12:42:24.472Z,20.53
2018-07-03T12:44:57.778Z,19.81
2018-07-03T12:47:31.111Z,20.90
2018-07-03T12:50:04.494Z,21.52
2018-07-03T12:52:37.803Z,19.79
2018-07-03T12:55:11.093Z,20.95
2018-07-03T12:57:45.028Z,21.34
2018-07-03T13:00:18.312Z,21.52
2018-07-03T13:02:51.704Z,19.82
2018-07-03T13:05:25.269Z,21.56
2018-07-03T13:07:58.621Z,21.69
2018-07-03T13:10:32.404Z,21.29
2018-07-03T13:13:05.800Z,21.01
2018-07-03T13:15:39.389Z,21.00
2018-07-03T13:18:17.816Z,21.55
2018-07-03T13:20:52.373Z,20.75
2018-07-03T13:23:25.924Z,20.46
2018-07-03T13:25:59.244Z,20.48
2018-07-03T13:28:32.589Z,19.12
2018-07-03T13:31:06.037Z,19.25
2018-07-03T13:33:39.345Z,21.40
2018-07-03T13:36:13.290Z,20.73
2018-07-03T13:38:46.648Z,20.33
2018-07-03T13:41:19.943Z,21.04
2018-07-03T13:43:53.300Z,22.25
2018-07-03T13:46:26.596Z,20.79
2018-07-03T13:48:59.945Z,20.24
2018-07-03T13:51:33.251Z,20.44
2018-07-03T13:54:06.617Z,19.53
2018-07-03T13:56:39.909Z,19.21
2018-07-03T13:59:13.844Z,20.29
2018-07-03T14:01:47.141Z,19.60
2018-07-03T14:04:20.449Z,21.04
2018-07-03T14:06:53.753Z,21.29
2018-07-03T14:09:27.061Z,20.58
2018-07-03T14:12:00.412Z,20.25
2018-07-03T14:14:34.544Z,21.95
2018-07-03T14:17:07.864Z,21.05
2018-07-03T14:19:41.217Z,19.92
2018-07-03T14:22:15.213Z,19.13
2018-07-03T14:24:48.545Z,19.73
2018-07-03T14:27:21.848Z,20.37
2018-07-03T14:29:55.197Z,19.15
2018-07-03T14:32:28.513Z,20.44
2018-07-03T14:35:02.227Z,21.37
2018-07-03T14:37:35.557Z,19.69
2018-07-03T14:40:08.890Z,19.08
2018-07-03T14:42:42.225Z,19.22
2018-07-03T14:45:15.837Z,19.14
2018-07-03T14:47:49.430Z,19.44
2018-07-03T14:53:02.610Z,19.74
2018-07-03T14:55:36.644Z,20.21
2018-07-03T14:58:10.067Z,20.81
2018-07-03T15:00:43.415Z,19.86
2018-07-03T15:03:16.876Z,19.96
2018-07-03T15:05:50.259Z,21.23
2018-07-03T15:08:23.659Z,21.28
2018-07-03T15:10:57.063Z,20.78
2018-07-03T15:13:30.490Z,20.89
2018-07-03T15:16:03.883Z,21.33
2018-07-03T15:18:42.658Z,20.68
2018-07-03T15:21:26.883Z,20.23
2018-07-03T15:24:00.280Z,21.55
2018-07-03T15:26:33.657Z,21.26
2018-07-03T15:29:07.419Z,21.77
2018-07-03T15:31:40.902Z,20.62
2018-07-03T15:34:14.297Z,20.23
2018-07-03T15:36:47.670Z,20.96
2018-07-03T15:39:21.079Z,21.00
2018-07-03T15:41:54.598Z,22.09
2018-07-03T15:44:39.823Z,21.47
2018-07-03T15:47:15.053Z,22.20
2018-07-03T15:49:48.674Z,21.21
2018-07-03T15:52:22.037Z,21.46
2018-07-03T15:54:55.522Z,20.16
2018-07-03T15:57:29.087Z,22.03
2018-07-03T16:00:02.570Z,21.39
2018-07-03T16:02:35.965Z,20.27
2018-07-03T16:06:24.409Z,21.06
2018-07-03T16:09:11.029Z,21.42
2018-07-03T16:11:44.974Z,21.30
2018-07-03T16:14:18.430Z,21.94
2018-07-03T16:16:51.791Z,22.04
2018-07-03T16:19:30.523Z,22.31
2018-07-03T16:22:04.076Z,22.84
2018-07-03T16:24:37.713Z,23.76
2018-07-03T16:27:11.218Z,21.87
2018-07-03T16:29:44.695Z,22.38
2018-07-03T16:32:18.085Z,21.01
2018-07-03T16:34:51.577Z,19.50
2018-07-03T16:37:25.014Z,22.14
2018-07-03T16:39:58.629Z,23.83
2018-07-03T16:42:32.033Z,24.62
2018-07-03T16:45:05.605Z,25.50
2018-07-03T16:47:39.039Z,25.61
2018-07-03T16:50:12.699Z,25.96
2018-07-03T16:52:46.130Z,25.74
2018-07-03T16:55:19.624Z,26.15
2018-07-03T16:57:52.996Z,26.50
2018-07-03T17:00:28.332Z,26.58
2018-07-03T17:03:01.844Z,26.72
2018-07-03T17:05:35.323Z,26.32
2018-07-03T17:08:08.755Z,26.26
2018-07-03T17:10:42.957Z,27.14
2018-07-03T17:13:16.598Z,27.06
2018-07-03T17:15:50.381Z,27.86
2018-07-03T17:18:23.949Z,27.70
2018-07-03T17:20:57.432Z,27.65
2018-07-03T17:23:30.896Z,27.93
2018-07-03T17:26:04.997Z,29.25
2018-07-03T17:28:38.472Z,29.06
2018-07-03T17:31:12.015Z,29.31
2018-07-03T17:33:45.707Z,29.75
2018-07-03T17:36:19.395Z,29.93
2018-07-03T17:38:52.961Z,29.63
2018-07-03T17:41:38.489Z,30.60
2018-07-03T17:44:24.015Z,30.75
2018-07-03T17:46:57.815Z,31.47
2018-07-03T17:49:31.605Z,31.53
2018-07-03T17:52:05.574Z,31.41
2018-07-03T17:54:39.889Z,32.76
2018-07-03T17:57:14.271Z,32.27
2018-07-03T17:59:48.384Z,33.16
2018-07-03T18:02:22.285Z,34.59
2018-07-03T18:04:56.593Z,32.86
2018-07-03T18:07:30.517Z,33.25
2018-07-03T18:10:04.265Z,33.44
2018-07-03T18:12:39.521Z,33.06
2018-07-03T18:15:13.722Z,32.87
2018-07-03T18:17:47.971Z,33.96
2018-07-03T18:20:21.880Z,33.96
2018-07-03T18:22:56.277Z,35.29
2018-07-03T18:25:29.848Z,34.47
2018-07-03T18:28:03.256Z,33.72
2018-07-03T18:30:36.705Z,35.18
2018-07-03T18:33:10.161Z,33.98
2018-07-03T18:35:43.642Z,34.25
2018-07-03T18:38:17.030Z,36.39
2018-07-03T18:40:50.429Z,35.51
2018-07-03T18:43:23.864Z,36.14
2018-07-03T18:45:57.245Z,34.95
2018-07-03T18:48:30.695Z,35.33
2018-07-03T18:51:04.110Z,36.62
2018-07-03T18:53:37.604Z,35.99
2018-07-03T18:56:11.026Z,35.94
2018-07-03T18:58:44.438Z,35.46
2018-07-03T19:01:17.820Z,35.53
2018-07-03T19:03:51.251Z,36.61
2018-07-03T19:06:24.621Z,38.88
2018-07-03T19:08:58.060Z,38.38
2018-07-03T19:11:31.454Z,37.03
2018-07-03T19:14:04.880Z,37.56
2018-07-03T19:16:38.233Z,38.18
2018-07-03T19:19:11.606Z,38.34
2018-07-03T19:21:45.008Z,38.15
2018-07-03T19:24:18.503Z,38.72
2018-07-03T19:26:51.942Z,38.69
2018-07-03T19:29:25.490Z,39.33
2018-07-03T19:31:58.895Z,40.58
2018-07-03T19:34:32.435Z,39.69
2018-07-03T19:37:05.931Z,40.24
2018-07-03T19:39:39.469Z,40.21
2018-07-03T19:42:12.987Z,41.08
2018-07-03T19:44:46.459Z,41.26
2018-07-03T19:47:19.925Z,41.19
2018-07-03T19:49:54.372Z,41.18
2018-07-03T19:52:27.956Z,40.72
2018-07-03T19:55:01.625Z,41.92
2018-07-03T19:57:36.130Z,41.91
2018-07-03T20:00:10.635Z,42.21
2018-07-03T20:02:44.827Z,43.49
2018-07-03T20:05:19.157Z,41.71
2018-07-03T20:07:54.220Z,43.25
2018-07-03T20:10:27.898Z,44.18
2018-07-03T20:13:02.304Z,45.73
2018-07-03T20:15:38.061Z,43.92
2018-07-03T20:18:13.078Z,44.11
2018-07-03T20:20:46.961Z,43.97
2018-07-03T20:23:20.498Z,43.45
2018-07-03T20:25:55.317Z,44.32
2018-07-03T20:28:29.223Z,44.24
2018-07-03T20:31:03.406Z,44.63
2018-07-03T20:33:37.486Z,44.83
2018-07-03T20:36:13.504Z,45.09
2018-07-03T20:38:47.018Z,45.04
2018-07-03T20:41:20.956Z,44.41
2018-07-03T20:43:56.175Z,45.14
2018-07-03T20:46:29.851Z,45.07
2018-07-03T20:49:04.150Z,45.50
2018-07-03T20:51:38.014Z,49.47
2018-07-03T20:54:11.863Z,48.05
2018-07-03T20:56:45.347Z,49.50
2018-07-03T20:59:19.088Z,49.30
2018-07-03T21:01:53.588Z,47.40
2018-07-03T21:04:27.684Z,47.67
2018-07-03T21:07:01.222Z,48.82
2018-07-03T21:09:35.308Z,47.48
2018-07-03T21:12:10.109Z,47.54
2018-07-03T21:14:43.822Z,47.76
2018-07-03T21:17:18.472Z,47.78
2018-07-03T21:19:52.632Z,47.54
2018-07-03T21:22:26.390Z,48.00
2018-07-03T21:25:00.723Z,48.56
2018-07-03T21:27:35.151Z,50.25
2018-07-03T21:30:09.495Z,49.50
2018-07-03T21:32:44.199Z,50.27
2018-07-03T21:35:17.671Z,49.89
2018-07-03T21:37:51.107Z,49.03
2018-07-03T21:40:24.698Z,48.98
2018-07-03T21:42:58.143Z,48.84
2018-07-03T21:45:31.555Z,49.00
2018-07-03T21:48:05.037Z,48.96
2018-07-03T21:50:38.519Z,49.81
2018-07-03T21:53:11.916Z,50.16
2018-07-03T21:55:45.721Z,51.71
2018-07-03T21:58:19.889Z,49.23
2018-07-03T22:00:54.153Z,48.78
2018-07-03T22:03:27.688Z,49.06
2018-07-03T22:06:01.353Z,49.01
2018-07-03T22:08:34.924Z,49.45
2018-07-03T22:11:08.600Z,50.31
2018-07-03T22:13:42.062Z,50.13
2018-07-03T22:16:17.112Z,51.15
2018-07-03T22:18:51.298Z,50.34
2018-07-03T22:21:24.912Z,50.36
2018-07-03T22:23:58.569Z,50.66
2018-07-03T22:26:32.224Z,51.49
2018-07-03T22:29:05.888Z,51.77
2018-07-03T22:31:39.504Z,51.33
2018-07-03T22:34:13.105Z,51.56
2018-07-03T22:36:46.689Z,51.68
2018-07-03T22:39:20.376Z,51.13
2018-07-03T22:41:53.985Z,51.13
2018-07-03T22:44:27.573Z,51.02
2018-07-03T22:47:01.077Z,51.95
2018-07-03T22:49:34.662Z,51.75
2018-07-03T22:52:08.261Z,52.11
2018-07-03T22:54:41.810Z,52.41
2018-07-03T22:57:15.420Z,52.68
2018-07-03T22:59:49.052Z,52.12
2018-07-03T23:02:22.698Z,52.35
2018-07-03T23:04:56.297Z,52.01
2018-07-03T23:07:29.880Z,52.51
2018-07-03T23:10:03.541Z,51.92
2018-07-03T23:12:36.980Z,52.41
2018-07-03T23:15:10.484Z,51.90
2018-07-03T23:17:44.100Z,52.08
2018-07-03T23:20:17.614Z,52.13
2018-07-03T23:22:51.175Z,52.58
2018-07-03T23:25:24.803Z,52.77
2018-07-03T23:27:58.402Z,52.82
2018-07-03T23:30:32.070Z,53.17
2018-07-03T23:33:05.619Z,52.91
2018-07-03T23:35:39.736Z,53.37
2018-07-03T23:38:13.344Z,53.40
2018-07-03T23:40:47.016Z,53.73
2018-07-03T23:43:20.636Z,53.18
2018-07-03T23:46:00.213Z,53.36
2018-07-03T23:48:45.042Z,53.23
2018-07-03T23:51:29.726Z,53.40
2018-07-03T23:54:14.423Z,53.52
2018-07-03T23:56:59.102Z,53.56
2018-07-03T23:59:43.685Z,54.64
